sensor_id;sensor_type;location;lat;lon;timestamp;P1;durP1;ratioP1;P2;durP2;ratioP2
18820;SDS011;9539;59.332;18.034;2023-09-30T00:01:08;22.48;;;11.50;;
18820;SDS011;9539;59.332;18.034;2023-09-30T00:03:31;16.98;;;10.02;;
18820;SDS011;9539;59.332;18.034;2023-09-30T00:05:54;18.75;;;11.13;;
18820;SDS011;9539;59.332;18.034;2023-09-30T00:08:16;23.23;;;10.82;;
18820;SDS011;9539;59.332;18.034;2023-09-30T00:10:39;21.92;;;10.55;;
18820;SDS011;9539;59.332;18.034;2023-09-30T00:13:01;18.17;;;10.77;;
18820;SDS011;9539;59.332;18.034;2023-09-30T00:15:23;19.17;;;11.45;;
18820;SDS011;9539;59.332;18.034;2023-09-30T00:17:45;21.00;;;10.82;;
18820;SDS011;9539;59.332;18.034;2023-09-30T00:20:07;21.73;;;11.00;;
18820;SDS011;9539;59.332;18.034;2023-09-30T00:22:30;21.35;;;10.98;;
18820;SDS011;9539;59.332;18.034;2023-09-30T00:24:53;22.05;;;11.18;;
18820;SDS011;9539;59.332;18.034;2023-09-30T00:27:16;23.02;;;10.60;;
18820;SDS011;9539;59.332;18.034;2023-09-30T00:29:38;20.08;;;10.50;;
18820;SDS011;9539;59.332;18.034;2023-09-30T00:32:00;20.05;;;10.65;;
18820;SDS011;9539;59.332;18.034;2023-09-30T00:34:22;21.85;;;11.50;;
18820;SDS011;9539;59.332;18.034;2023-09-30T00:36:43;22.75;;;11.05;;
18820;SDS011;9539;59.332;18.034;2023-09-30T00:39:06;21.73;;;11.20;;
18820;SDS011;9539;59.332;18.034;2023-09-30T00:41:29;20.52;;;11.25;;
18820;SDS011;9539;59.332;18.034;2023-09-30T00:43:53;20.33;;;10.60;;
18820;SDS011;9539;59.332;18.034;2023-09-30T00:46:17;17.77;;;10.57;;
18820;SDS011;9539;59.332;18.034;2023-09-30T00:48:48;18.90;;;10.40;;
18820;SDS011;9539;59.332;18.034;2023-09-30T00:51:10;18.77;;;9.75;;
18820;SDS011;9539;59.332;18.034;2023-09-30T00:53:32;18.02;;;10.60;;
18820;SDS011;9539;59.332;18.034;2023-09-30T00:55:54;16.67;;;8.93;;
18820;SDS011;9539;59.332;18.034;2023-09-30T00:58:17;15.98;;;8.88;;
18820;SDS011;9539;59.332;18.034;2023-09-30T01:00:41;14.95;;;8.07;;
18820;SDS011;9539;59.332;18.034;2023-09-30T01:03:04;13.35;;;7.82;;
18820;SDS011;9539;59.332;18.034;2023-09-30T01:05:26;14.30;;;7.38;;
18820;SDS011;9539;59.332;18.034;2023-09-30T01:07:48;11.77;;;7.47;;
18820;SDS011;9539;59.332;18.034;2023-09-30T01:10:10;12.52;;;7.00;;
18820;SDS011;9539;59.332;18.034;2023-09-30T01:12:32;10.07;;;6.05;;
18820;SDS011;9539;59.332;18.034;2023-09-30T01:14:57;10.90;;;5.68;;
18820;SDS011;9539;59.332;18.034;2023-09-30T01:17:21;10.52;;;6.10;;
18820;SDS011;9539;59.332;18.034;2023-09-30T01:19:43;11.02;;;6.07;;
18820;SDS011;9539;59.332;18.034;2023-09-30T01:22:06;9.05;;;5.65;;
18820;SDS011;9539;59.332;18.034;2023-09-30T01:24:29;7.57;;;5.10;;
18820;SDS011;9539;59.332;18.034;2023-09-30T01:26:51;6.68;;;5.20;;
18820;SDS011;9539;59.332;18.034;2023-09-30T01:29:14;7.78;;;5.07;;
18820;SDS011;9539;59.332;18.034;2023-09-30T01:31:37;8.60;;;5.35;;
18820;SDS011;9539;59.332;18.034;2023-09-30T01:33:59;12.55;;;5.20;;
18820;SDS011;9539;59.332;18.034;2023-09-30T01:36:21;6.80;;;4.40;;
18820;SDS011;9539;59.332;18.034;2023-09-30T01:38:44;8.38;;;3.97;;
18820;SDS011;9539;59.332;18.034;2023-09-30T01:41:06;6.32;;;3.75;;
18820;SDS011;9539;59.332;18.034;2023-09-30T01:43:28;6.97;;;3.42;;
18820;SDS011;9539;59.332;18.034;2023-09-30T01:45:50;4.82;;;3.22;;
18820;SDS011;9539;59.332;18.034;2023-09-30T01:48:12;4.18;;;2.92;;
18820;SDS011;9539;59.332;18.034;2023-09-30T01:50:34;5.30;;;3.00;;
18820;SDS011;9539;59.332;18.034;2023-09-30T01:52:56;5.32;;;2.80;;
18820;SDS011;9539;59.332;18.034;2023-09-30T01:55:19;4.57;;;2.50;;
18820;SDS011;9539;59.332;18.034;2023-09-30T01:57:41;3.15;;;2.60;;
18820;SDS011;9539;59.332;18.034;2023-09-30T02:00:03;4.40;;;2.65;;
18820;SDS011;9539;59.332;18.034;2023-09-30T02:02:26;4.85;;;2.72;;
18820;SDS011;9539;59.332;18.034;2023-09-30T02:04:48;5.82;;;2.72;;
18820;SDS011;9539;59.332;18.034;2023-09-30T02:07:10;5.40;;;2.92;;
18820;SDS011;9539;59.332;18.034;2023-09-30T02:09:31;5.80;;;2.63;;
18820;SDS011;9539;59.332;18.034;2023-09-30T02:11:54;6.65;;;2.92;;
18820;SDS011;9539;59.332;18.034;2023-09-30T02:14:16;7.60;;;2.95;;
18820;SDS011;9539;59.332;18.034;2023-09-30T02:16:38;5.60;;;2.80;;
18820;SDS011;9539;59.332;18.034;2023-09-30T02:19:00;5.43;;;2.67;;
18820;SDS011;9539;59.332;18.034;2023-09-30T02:21:22;5.70;;;2.67;;
18820;SDS011;9539;59.332;18.034;2023-09-30T02:23:44;6.93;;;3.10;;
18820;SDS011;9539;59.332;18.034;2023-09-30T02:26:08;5.93;;;3.10;;
18820;SDS011;9539;59.332;18.034;2023-09-30T02:28:31;6.07;;;2.70;;
18820;SDS011;9539;59.332;18.034;2023-09-30T02:30:54;8.00;;;2.75;;
18820;SDS011;9539;59.332;18.034;2023-09-30T02:33:16;10.15;;;2.95;;
18820;SDS011;9539;59.332;18.034;2023-09-30T02:35:37;7.07;;;2.97;;
18820;SDS011;9539;59.332;18.034;2023-09-30T02:37:59;7.30;;;2.90;;
18820;SDS011;9539;59.332;18.034;2023-09-30T02:40:22;9.32;;;3.20;;
18820;SDS011;9539;59.332;18.034;2023-09-30T02:42:45;14.07;;;3.38;;
18820;SDS011;9539;59.332;18.034;2023-09-30T02:45:10;9.20;;;3.35;;
18820;SDS011;9539;59.332;18.034;2023-09-30T02:47:32;11.05;;;3.33;;
18820;SDS011;9539;59.332;18.034;2023-09-30T02:49:56;6.95;;;2.90;;
18820;SDS011;9539;59.332;18.034;2023-09-30T02:52:18;7.03;;;3.00;;
18820;SDS011;9539;59.332;18.034;2023-09-30T02:54:41;8.40;;;3.45;;
18820;SDS011;9539;59.332;18.034;2023-09-30T02:57:03;10.10;;;3.58;;
18820;SDS011;9539;59.332;18.034;2023-09-30T02:59:24;9.73;;;3.10;;
18820;SDS011;9539;59.332;18.034;2023-09-30T03:01:48;9.68;;;3.22;;
18820;SDS011;9539;59.332;18.034;2023-09-30T03:04:10;8.00;;;3.33;;
18820;SDS011;9539;59.332;18.034;2023-09-30T03:06:32;9.88;;;3.40;;
18820;SDS011;9539;59.332;18.034;2023-09-30T03:08:55;10.63;;;3.10;;
18820;SDS011;9539;59.332;18.034;2023-09-30T03:11:17;10.32;;;3.13;;
18820;SDS011;9539;59.332;18.034;2023-09-30T03:13:40;7.53;;;3.13;;
18820;SDS011;9539;59.332;18.034;2023-09-30T03:16:02;10.73;;;3.30;;
18820;SDS011;9539;59.332;18.034;2023-09-30T03:18:26;8.65;;;3.20;;
18820;SDS011;9539;59.332;18.034;2023-09-30T03:20:48;7.25;;;3.30;;
18820;SDS011;9539;59.332;18.034;2023-09-30T03:23:11;9.70;;;3.40;;
18820;SDS011;9539;59.332;18.034;2023-09-30T03:25:34;8.15;;;3.13;;
18820;SDS011;9539;59.332;18.034;2023-09-30T03:27:56;7.40;;;3.28;;
18820;SDS011;9539;59.332;18.034;2023-09-30T03:30:18;7.10;;;3.03;;
18820;SDS011;9539;59.332;18.034;2023-09-30T03:32:41;11.15;;;3.35;;
18820;SDS011;9539;59.332;18.034;2023-09-30T03:35:04;6.75;;;3.10;;
18820;SDS011;9539;59.332;18.034;2023-09-30T03:37:26;7.82;;;3.17;;
18820;SDS011;9539;59.332;18.034;2023-09-30T03:39:48;10.13;;;3.35;;
18820;SDS011;9539;59.332;18.034;2023-09-30T03:42:10;9.73;;;3.17;;
18820;SDS011;9539;59.332;18.034;2023-09-30T03:44:32;10.55;;;3.97;;
18820;SDS011;9539;59.332;18.034;2023-09-30T03:46:54;10.57;;;3.97;;
18820;SDS011;9539;59.332;18.034;2023-09-30T03:49:17;10.45;;;3.67;;
18820;SDS011;9539;59.332;18.034;2023-09-30T03:51:42;11.25;;;3.53;;
18820;SDS011;9539;59.332;18.034;2023-09-30T03:54:04;10.88;;;3.85;;
18820;SDS011;9539;59.332;18.034;2023-09-30T03:56:26;16.23;;;4.10;;
18820;SDS011;9539;59.332;18.034;2023-09-30T03:58:48;11.02;;;3.47;;
18820;SDS011;9539;59.332;18.034;2023-09-30T04:01:10;9.88;;;3.70;;
18820;SDS011;9539;59.332;18.034;2023-09-30T04:03:33;11.02;;;3.85;;
18820;SDS011;9539;59.332;18.034;2023-09-30T04:05:57;11.80;;;4.10;;
18820;SDS011;9539;59.332;18.034;2023-09-30T04:08:20;14.25;;;3.75;;
18820;SDS011;9539;59.332;18.034;2023-09-30T04:10:43;10.98;;;3.97;;
18820;SDS011;9539;59.332;18.034;2023-09-30T04:13:05;11.07;;;4.07;;
18820;SDS011;9539;59.332;18.034;2023-09-30T04:15:27;13.30;;;3.50;;
18820;SDS011;9539;59.332;18.034;2023-09-30T04:17:49;11.43;;;4.03;;
18820;SDS011;9539;59.332;18.034;2023-09-30T04:20:11;10.15;;;3.90;;
18820;SDS011;9539;59.332;18.034;2023-09-30T04:22:44;12.75;;;4.40;;
18820;SDS011;9539;59.332;18.034;2023-09-30T04:25:10;12.43;;;4.22;;
18820;SDS011;9539;59.332;18.034;2023-09-30T04:27:32;14.02;;;4.05;;
18820;SDS011;9539;59.332;18.034;2023-09-30T04:29:54;12.90;;;4.20;;
18820;SDS011;9539;59.332;18.034;2023-09-30T04:32:16;10.73;;;4.07;;
18820;SDS011;9539;59.332;18.034;2023-09-30T04:34:38;15.32;;;4.60;;
18820;SDS011;9539;59.332;18.034;2023-09-30T04:36:59;15.05;;;4.30;;
18820;SDS011;9539;59.332;18.034;2023-09-30T04:39:22;18.95;;;4.50;;
18820;SDS011;9539;59.332;18.034;2023-09-30T04:41:45;12.88;;;4.50;;
18820;SDS011;9539;59.332;18.034;2023-09-30T04:44:07;12.77;;;4.68;;
18820;SDS011;9539;59.332;18.034;2023-09-30T04:46:30;14.02;;;4.40;;
18820;SDS011;9539;59.332;18.034;2023-09-30T04:48:51;15.20;;;4.85;;
18820;SDS011;9539;59.332;18.034;2023-09-30T04:51:13;16.35;;;4.65;;
18820;SDS011;9539;59.332;18.034;2023-09-30T04:53:38;12.57;;;4.07;;
18820;SDS011;9539;59.332;18.034;2023-09-30T04:56:00;13.35;;;4.30;;
18820;SDS011;9539;59.332;18.034;2023-09-30T04:58:23;14.38;;;4.60;;
18820;SDS011;9539;59.332;18.034;2023-09-30T05:00:45;18.15;;;4.90;;
18820;SDS011;9539;59.332;18.034;2023-09-30T05:03:07;17.48;;;4.70;;
18820;SDS011;9539;59.332;18.034;2023-09-30T05:05:28;15.98;;;4.40;;
18820;SDS011;9539;59.332;18.034;2023-09-30T05:07:50;10.63;;;4.35;;
18820;SDS011;9539;59.332;18.034;2023-09-30T05:10:12;20.83;;;4.97;;
18820;SDS011;9539;59.332;18.034;2023-09-30T05:12:36;15.30;;;4.40;;
18820;SDS011;9539;59.332;18.034;2023-09-30T05:15:00;16.17;;;4.45;;
18820;SDS011;9539;59.332;18.034;2023-09-30T05:17:22;13.50;;;4.22;;
18820;SDS011;9539;59.332;18.034;2023-09-30T05:19:43;15.75;;;4.10;;
18820;SDS011;9539;59.332;18.034;2023-09-30T05:22:05;18.48;;;4.80;;
18820;SDS011;9539;59.332;18.034;2023-09-30T05:24:27;13.65;;;4.10;;
18820;SDS011;9539;59.332;18.034;2023-09-30T05:26:49;14.68;;;4.07;;
18820;SDS011;9539;59.332;18.034;2023-09-30T05:29:11;15.15;;;4.75;;
18820;SDS011;9539;59.332;18.034;2023-09-30T05:31:34;19.92;;;4.43;;
18820;SDS011;9539;59.332;18.034;2023-09-30T05:33:56;12.80;;;3.95;;
18820;SDS011;9539;59.332;18.034;2023-09-30T05:36:19;12.70;;;4.00;;
18820;SDS011;9539;59.332;18.034;2023-09-30T05:38:40;14.27;;;3.97;;
18820;SDS011;9539;59.332;18.034;2023-09-30T05:41:03;13.82;;;4.07;;
18820;SDS011;9539;59.332;18.034;2023-09-30T05:43:26;14.50;;;3.83;;
18820;SDS011;9539;59.332;18.034;2023-09-30T05:45:48;12.80;;;3.85;;
18820;SDS011;9539;59.332;18.034;2023-09-30T05:48:16;17.27;;;4.13;;
18820;SDS011;9539;59.332;18.034;2023-09-30T05:50:38;13.50;;;4.43;;
18820;SDS011;9539;59.332;18.034;2023-09-30T05:53:00;13.93;;;3.63;;
18820;SDS011;9539;59.332;18.034;2023-09-30T05:55:21;13.18;;;4.03;;
18820;SDS011;9539;59.332;18.034;2023-09-30T05:57:45;11.77;;;4.28;;
18820;SDS011;9539;59.332;18.034;2023-09-30T06:00:07;11.43;;;3.67;;
18820;SDS011;9539;59.332;18.034;2023-09-30T06:02:35;13.55;;;4.50;;
18820;SDS011;9539;59.332;18.034;2023-09-30T06:04:58;16.45;;;3.88;;
18820;SDS011;9539;59.332;18.034;2023-09-30T06:07:21;15.00;;;4.18;;
18820;SDS011;9539;59.332;18.034;2023-09-30T06:09:43;16.83;;;4.22;;
18820;SDS011;9539;59.332;18.034;2023-09-30T06:12:05;13.68;;;4.50;;
18820;SDS011;9539;59.332;18.034;2023-09-30T06:14:27;17.05;;;4.03;;
18820;SDS011;9539;59.332;18.034;2023-09-30T06:16:51;17.98;;;4.20;;
18820;SDS011;9539;59.332;18.034;2023-09-30T06:19:12;16.73;;;4.25;;
18820;SDS011;9539;59.332;18.034;2023-09-30T06:21:36;14.13;;;4.20;;
18820;SDS011;9539;59.332;18.034;2023-09-30T06:23:59;20.35;;;4.28;;
18820;SDS011;9539;59.332;18.034;2023-09-30T06:26:21;13.93;;;3.85;;
18820;SDS011;9539;59.332;18.034;2023-09-30T06:28:44;13.45;;;3.55;;
18820;SDS011;9539;59.332;18.034;2023-09-30T06:31:08;13.23;;;4.10;;
18820;SDS011;9539;59.332;18.034;2023-09-30T06:33:29;16.13;;;3.80;;
18820;SDS011;9539;59.332;18.034;2023-09-30T06:35:52;15.43;;;4.07;;
18820;SDS011;9539;59.332;18.034;2023-09-30T06:38:15;15.02;;;4.25;;
18820;SDS011;9539;59.332;18.034;2023-09-30T06:40:38;13.68;;;3.80;;
18820;SDS011;9539;59.332;18.034;2023-09-30T06:43:02;18.15;;;4.03;;
18820;SDS011;9539;59.332;18.034;2023-09-30T06:45:25;15.10;;;4.03;;
18820;SDS011;9539;59.332;18.034;2023-09-30T06:47:47;13.63;;;4.32;;
18820;SDS011;9539;59.332;18.034;2023-09-30T06:50:09;14.63;;;3.47;;
18820;SDS011;9539;59.332;18.034;2023-09-30T06:52:32;17.70;;;3.55;;
18820;SDS011;9539;59.332;18.034;2023-09-30T06:54:56;14.63;;;3.97;;
18820;SDS011;9539;59.332;18.034;2023-09-30T06:57:18;17.30;;;4.00;;
18820;SDS011;9539;59.332;18.034;2023-09-30T06:59:40;14.10;;;3.67;;
18820;SDS011;9539;59.332;18.034;2023-09-30T07:02:02;15.68;;;4.22;;
18820;SDS011;9539;59.332;18.034;2023-09-30T07:04:23;17.02;;;3.50;;
18820;SDS011;9539;59.332;18.034;2023-09-30T07:06:46;14.20;;;3.70;;
18820;SDS011;9539;59.332;18.034;2023-09-30T07:09:08;11.45;;;3.72;;
18820;SDS011;9539;59.332;18.034;2023-09-30T07:11:32;13.15;;;3.85;;
18820;SDS011;9539;59.332;18.034;2023-09-30T07:13:53;14.40;;;3.97;;
18820;SDS011;9539;59.332;18.034;2023-09-30T07:16:15;16.10;;;3.78;;
18820;SDS011;9539;59.332;18.034;2023-09-30T07:18:37;14.52;;;3.55;;
18820;SDS011;9539;59.332;18.034;2023-09-30T07:20:59;12.38;;;3.45;;
18820;SDS011;9539;59.332;18.034;2023-09-30T07:23:21;19.05;;;3.88;;
18820;SDS011;9539;59.332;18.034;2023-09-30T07:25:43;13.82;;;3.42;;
18820;SDS011;9539;59.332;18.034;2023-09-30T07:28:07;14.93;;;3.85;;
18820;SDS011;9539;59.332;18.034;2023-09-30T07:30:31;23.15;;;3.90;;
18820;SDS011;9539;59.332;18.034;2023-09-30T07:32:53;13.60;;;3.78;;
18820;SDS011;9539;59.332;18.034;2023-09-30T07:35:15;17.42;;;4.07;;
18820;SDS011;9539;59.332;18.034;2023-09-30T07:37:37;18.13;;;4.20;;
18820;SDS011;9539;59.332;18.034;2023-09-30T07:39:59;13.32;;;3.47;;
18820;SDS011;9539;59.332;18.034;2023-09-30T07:42:21;16.85;;;3.30;;
18820;SDS011;9539;59.332;18.034;2023-09-30T07:44:45;16.55;;;3.70;;
18820;SDS011;9539;59.332;18.034;2023-09-30T07:47:07;17.05;;;4.00;;
18820;SDS011;9539;59.332;18.034;2023-09-30T07:49:29;12.50;;;3.22;;
18820;SDS011;9539;59.332;18.034;2023-09-30T07:51:52;11.52;;;2.72;;
18820;SDS011;9539;59.332;18.034;2023-09-30T07:54:14;16.70;;;3.67;;
18820;SDS011;9539;59.332;18.034;2023-09-30T07:56:37;12.38;;;3.67;;
18820;SDS011;9539;59.332;18.034;2023-09-30T07:58:59;15.07;;;3.47;;
18820;SDS011;9539;59.332;18.034;2023-09-30T08:01:23;14.60;;;3.75;;
18820;SDS011;9539;59.332;18.034;2023-09-30T08:03:45;11.20;;;3.38;;
18820;SDS011;9539;59.332;18.034;2023-09-30T08:06:07;11.63;;;3.22;;
18820;SDS011;9539;59.332;18.034;2023-09-30T08:08:29;12.05;;;3.63;;
18820;SDS011;9539;59.332;18.034;2023-09-30T08:10:51;10.85;;;3.10;;
18820;SDS011;9539;59.332;18.034;2023-09-30T08:13:15;18.98;;;4.00;;
18820;SDS011;9539;59.332;18.034;2023-09-30T08:15:37;15.18;;;3.85;;
18820;SDS011;9539;59.332;18.034;2023-09-30T08:18:01;18.73;;;3.67;;
18820;SDS011;9539;59.332;18.034;2023-09-30T08:20:26;11.05;;;3.30;;
18820;SDS011;9539;59.332;18.034;2023-09-30T08:22:48;12.20;;;3.65;;
18820;SDS011;9539;59.332;18.034;2023-09-30T08:25:09;13.75;;;3.50;;
18820;SDS011;9539;59.332;18.034;2023-09-30T08:27:31;14.85;;;4.00;;
18820;SDS011;9539;59.332;18.034;2023-09-30T08:29:53;15.98;;;3.58;;
18820;SDS011;9539;59.332;18.034;2023-09-30T08:32:15;18.77;;;3.70;;
18820;SDS011;9539;59.332;18.034;2023-09-30T08:34:38;15.25;;;4.15;;
18820;SDS011;9539;59.332;18.034;2023-09-30T08:37:00;12.93;;;3.53;;
18820;SDS011;9539;59.332;18.034;2023-09-30T08:39:22;17.02;;;3.70;;
18820;SDS011;9539;59.332;18.034;2023-09-30T08:41:44;12.13;;;3.38;;
18820;SDS011;9539;59.332;18.034;2023-09-30T08:44:06;18.00;;;3.92;;
18820;SDS011;9539;59.332;18.034;2023-09-30T08:46:29;14.60;;;3.88;;
18820;SDS011;9539;59.332;18.034;2023-09-30T08:48:52;11.32;;;3.50;;
18820;SDS011;9539;59.332;18.034;2023-09-30T08:51:19;11.95;;;3.30;;
18820;SDS011;9539;59.332;18.034;2023-09-30T08:53:41;15.20;;;3.90;;
18820;SDS011;9539;59.332;18.034;2023-09-30T08:56:03;14.32;;;3.80;;
18820;SDS011;9539;59.332;18.034;2023-09-30T08:58:30;18.25;;;3.83;;
18820;SDS011;9539;59.332;18.034;2023-09-30T09:00:52;14.40;;;3.75;;
18820;SDS011;9539;59.332;18.034;2023-09-30T09:03:14;13.63;;;3.65;;
18820;SDS011;9539;59.332;18.034;2023-09-30T09:05:36;13.55;;;3.63;;
18820;SDS011;9539;59.332;18.034;2023-09-30T09:07:59;14.30;;;4.05;;
18820;SDS011;9539;59.332;18.034;2023-09-30T09:10:21;13.55;;;3.72;;
18820;SDS011;9539;59.332;18.034;2023-09-30T09:12:44;13.55;;;3.90;;
18820;SDS011;9539;59.332;18.034;2023-09-30T09:15:20;14.77;;;3.65;;
18820;SDS011;9539;59.332;18.034;2023-09-30T09:17:45;15.00;;;3.88;;
18820;SDS011;9539;59.332;18.034;2023-09-30T09:20:07;13.57;;;3.78;;
18820;SDS011;9539;59.332;18.034;2023-09-30T09:22:37;13.23;;;3.28;;
18820;SDS011;9539;59.332;18.034;2023-09-30T09:25:01;16.33;;;3.47;;
18820;SDS011;9539;59.332;18.034;2023-09-30T09:27:23;18.17;;;4.15;;
18820;SDS011;9539;59.332;18.034;2023-09-30T09:29:45;15.32;;;3.72;;
18820;SDS011;9539;59.332;18.034;2023-09-30T09:32:07;12.07;;;3.30;;
18820;SDS011;9539;59.332;18.034;2023-09-30T09:34:32;13.02;;;3.55;;
18820;SDS011;9539;59.332;18.034;2023-09-30T09:36:54;15.30;;;3.70;;
18820;SDS011;9539;59.332;18.034;2023-09-30T09:39:16;14.80;;;3.50;;
18820;SDS011;9539;59.332;18.034;2023-09-30T09:41:52;17.52;;;3.60;;
18820;SDS011;9539;59.332;18.034;2023-09-30T09:44:17;12.18;;;3.33;;
18820;SDS011;9539;59.332;18.034;2023-09-30T09:46:41;11.30;;;3.35;;
18820;SDS011;9539;59.332;18.034;2023-09-30T09:49:04;13.57;;;3.88;;
18820;SDS011;9539;59.332;18.034;2023-09-30T09:51:26;11.93;;;3.03;;
18820;SDS011;9539;59.332;18.034;2023-09-30T09:53:50;12.68;;;3.13;;
18820;SDS011;9539;59.332;18.034;2023-09-30T09:56:12;13.55;;;3.55;;
18820;SDS011;9539;59.332;18.034;2023-09-30T09:58:36;12.23;;;3.35;;
18820;SDS011;9539;59.332;18.034;2023-09-30T10:01:01;14.05;;;2.90;;
18820;SDS011;9539;59.332;18.034;2023-09-30T10:03:23;10.55;;;2.88;;
18820;SDS011;9539;59.332;18.034;2023-09-30T10:05:45;12.27;;;3.30;;
18820;SDS011;9539;59.332;18.034;2023-09-30T10:08:10;14.27;;;3.90;;
18820;SDS011;9539;59.332;18.034;2023-09-30T10:10:37;16.08;;;3.50;;
18820;SDS011;9539;59.332;18.034;2023-09-30T10:13:00;11.48;;;2.97;;
18820;SDS011;9539;59.332;18.034;2023-09-30T10:15:35;9.73;;;2.60;;
18820;SDS011;9539;59.332;18.034;2023-09-30T10:18:03;12.43;;;2.95;;
18820;SDS011;9539;59.332;18.034;2023-09-30T10:20:27;13.77;;;3.25;;
18820;SDS011;9539;59.332;18.034;2023-09-30T10:22:51;11.25;;;3.50;;
18820;SDS011;9539;59.332;18.034;2023-09-30T10:25:39;10.25;;;3.20;;
18820;SDS011;9539;59.332;18.034;2023-09-30T10:31:12;14.15;;;3.13;;
18820;SDS011;9539;59.332;18.034;2023-09-30T10:36:33;12.07;;;3.05;;
18820;SDS011;9539;59.332;18.034;2023-09-30T10:38:58;11.88;;;3.35;;
18820;SDS011;9539;59.332;18.034;2023-09-30T10:46:58;13.93;;;3.60;;
18820;SDS011;9539;59.332;18.034;2023-09-30T10:49:30;15.20;;;3.53;;
18820;SDS011;9539;59.332;18.034;2023-09-30T10:51:54;15.10;;;3.38;;
18820;SDS011;9539;59.332;18.034;2023-09-30T10:54:21;13.25;;;3.08;;
18820;SDS011;9539;59.332;18.034;2023-09-30T10:56:44;11.85;;;3.00;;
18820;SDS011;9539;59.332;18.034;2023-09-30T10:59:06;8.80;;;2.83;;
18820;SDS011;9539;59.332;18.034;2023-09-30T11:01:31;11.55;;;3.15;;
18820;SDS011;9539;59.332;18.034;2023-09-30T11:03:59;8.82;;;2.90;;
18820;SDS011;9539;59.332;18.034;2023-09-30T11:06:24;8.35;;;2.45;;
18820;SDS011;9539;59.332;18.034;2023-09-30T11:08:50;12.63;;;3.17;;
18820;SDS011;9539;59.332;18.034;2023-09-30T11:11:13;10.35;;;3.15;;
18820;SDS011;9539;59.332;18.034;2023-09-30T11:13:37;11.65;;;3.05;;
18820;SDS011;9539;59.332;18.034;2023-09-30T11:16:00;9.30;;;3.45;;
18820;SDS011;9539;59.332;18.034;2023-09-30T11:18:24;12.98;;;3.40;;
18820;SDS011;9539;59.332;18.034;2023-09-30T11:20:48;15.52;;;2.95;;
18820;SDS011;9539;59.332;18.034;2023-09-30T11:23:10;13.00;;;3.00;;
18820;SDS011;9539;59.332;18.034;2023-09-30T11:25:34;9.98;;;3.20;;
18820;SDS011;9539;59.332;18.034;2023-09-30T11:28:11;12.13;;;3.33;;
18820;SDS011;9539;59.332;18.034;2023-09-30T11:30:52;12.00;;;2.85;;
18820;SDS011;9539;59.332;18.034;2023-09-30T11:33:14;10.15;;;3.00;;
18820;SDS011;9539;59.332;18.034;2023-09-30T11:35:36;12.00;;;3.00;;
18820;SDS011;9539;59.332;18.034;2023-09-30T11:37:59;10.45;;;2.88;;
18820;SDS011;9539;59.332;18.034;2023-09-30T11:40:22;9.48;;;2.55;;
18820;SDS011;9539;59.332;18.034;2023-09-30T11:45:32;12.05;;;2.92;;
18820;SDS011;9539;59.332;18.034;2023-09-30T11:47:54;11.82;;;3.00;;
18820;SDS011;9539;59.332;18.034;2023-09-30T11:50:18;12.32;;;3.03;;
18820;SDS011;9539;59.332;18.034;2023-09-30T11:52:43;8.95;;;2.83;;
18820;SDS011;9539;59.332;18.034;2023-09-30T11:55:08;13.02;;;3.05;;
18820;SDS011;9539;59.332;18.034;2023-09-30T11:57:32;9.05;;;3.20;;
18820;SDS011;9539;59.332;18.034;2023-09-30T11:59:55;11.82;;;2.40;;
18820;SDS011;9539;59.332;18.034;2023-09-30T12:02:17;9.82;;;2.67;;
18820;SDS011;9539;59.332;18.034;2023-09-30T12:04:39;7.70;;;2.35;;
18820;SDS011;9539;59.332;18.034;2023-09-30T12:07:02;8.15;;;2.30;;
18820;SDS011;9539;59.332;18.034;2023-09-30T12:09:24;9.27;;;1.90;;
18820;SDS011;9539;59.332;18.034;2023-09-30T12:11:49;9.10;;;2.15;;
18820;SDS011;9539;59.332;18.034;2023-09-30T12:14:11;7.28;;;1.85;;
18820;SDS011;9539;59.332;18.034;2023-09-30T12:16:33;6.72;;;2.38;;
18820;SDS011;9539;59.332;18.034;2023-09-30T12:18:55;7.97;;;1.90;;
18820;SDS011;9539;59.332;18.034;2023-09-30T12:21:17;6.97;;;2.00;;
18820;SDS011;9539;59.332;18.034;2023-09-30T12:23:40;5.53;;;1.80;;
18820;SDS011;9539;59.332;18.034;2023-09-30T12:26:03;5.05;;;1.75;;
18820;SDS011;9539;59.332;18.034;2023-09-30T12:28:26;4.90;;;1.50;;
18820;SDS011;9539;59.332;18.034;2023-09-30T12:30:52;6.90;;;1.73;;
18820;SDS011;9539;59.332;18.034;2023-09-30T12:33:14;5.22;;;1.50;;
18820;SDS011;9539;59.332;18.034;2023-09-30T12:35:35;5.07;;;1.85;;
18820;SDS011;9539;59.332;18.034;2023-09-30T12:37:57;6.65;;;1.75;;
18820;SDS011;9539;59.332;18.034;2023-09-30T12:40:19;8.13;;;1.67;;
18820;SDS011;9539;59.332;18.034;2023-09-30T12:42:41;4.75;;;1.50;;
18820;SDS011;9539;59.332;18.034;2023-09-30T12:45:05;6.32;;;1.63;;
18820;SDS011;9539;59.332;18.034;2023-09-30T12:47:28;6.00;;;1.75;;
18820;SDS011;9539;59.332;18.034;2023-09-30T12:49:50;6.43;;;1.77;;
18820;SDS011;9539;59.332;18.034;2023-09-30T12:52:14;10.82;;;2.00;;
18820;SDS011;9539;59.332;18.034;2023-09-30T12:54:36;5.32;;;1.55;;
18820;SDS011;9539;59.332;18.034;2023-09-30T12:56:58;5.68;;;1.30;;
18820;SDS011;9539;59.332;18.034;2023-09-30T12:59:20;4.78;;;1.65;;
18820;SDS011;9539;59.332;18.034;2023-09-30T13:01:47;5.07;;;1.60;;
18820;SDS011;9539;59.332;18.034;2023-09-30T13:04:09;5.78;;;1.60;;
18820;SDS011;9539;59.332;18.034;2023-09-30T13:06:31;7.55;;;1.58;;
18820;SDS011;9539;59.332;18.034;2023-09-30T13:08:55;5.25;;;1.42;;
18820;SDS011;9539;59.332;18.034;2023-09-30T13:11:17;5.28;;;1.67;;
18820;SDS011;9539;59.332;18.034;2023-09-30T13:13:39;5.00;;;1.85;;
18820;SDS011;9539;59.332;18.034;2023-09-30T13:16:01;4.57;;;1.70;;
18820;SDS011;9539;59.332;18.034;2023-09-30T13:18:23;5.30;;;1.70;;
18820;SDS011;9539;59.332;18.034;2023-09-30T13:20:45;6.22;;;1.92;;
18820;SDS011;9539;59.332;18.034;2023-09-30T13:23:07;6.07;;;1.42;;
18820;SDS011;9539;59.332;18.034;2023-09-30T13:25:29;7.25;;;1.80;;
18820;SDS011;9539;59.332;18.034;2023-09-30T13:27:51;4.75;;;1.73;;
18820;SDS011;9539;59.332;18.034;2023-09-30T13:30:13;4.75;;;1.52;;
18820;SDS011;9539;59.332;18.034;2023-09-30T13:32:35;5.38;;;1.50;;
18820;SDS011;9539;59.332;18.034;2023-09-30T13:34:58;5.13;;;1.42;;
18820;SDS011;9539;59.332;18.034;2023-09-30T13:37:20;4.15;;;1.30;;
18820;SDS011;9539;59.332;18.034;2023-09-30T13:39:42;4.90;;;1.55;;
18820;SDS011;9539;59.332;18.034;2023-09-30T13:42:04;3.85;;;1.45;;
18820;SDS011;9539;59.332;18.034;2023-09-30T13:44:27;7.15;;;1.50;;
18820;SDS011;9539;59.332;18.034;2023-09-30T13:46:49;5.55;;;1.50;;
18820;SDS011;9539;59.332;18.034;2023-09-30T13:49:11;5.05;;;1.80;;
18820;SDS011;9539;59.332;18.034;2023-09-30T13:51:34;4.85;;;1.70;;
18820;SDS011;9539;59.332;18.034;2023-09-30T13:53:56;7.05;;;1.60;;
18820;SDS011;9539;59.332;18.034;2023-09-30T13:56:17;4.82;;;1.23;;
18820;SDS011;9539;59.332;18.034;2023-09-30T13:58:39;6.45;;;1.58;;
18820;SDS011;9539;59.332;18.034;2023-09-30T14:01:02;3.50;;;1.60;;
18820;SDS011;9539;59.332;18.034;2023-09-30T14:03:24;5.22;;;1.70;;
18820;SDS011;9539;59.332;18.034;2023-09-30T14:05:46;6.93;;;1.80;;
18820;SDS011;9539;59.332;18.034;2023-09-30T14:08:09;4.70;;;1.60;;
18820;SDS011;9539;59.332;18.034;2023-09-30T14:10:31;6.95;;;1.80;;
18820;SDS011;9539;59.332;18.034;2023-09-30T14:12:53;4.45;;;1.48;;
18820;SDS011;9539;59.332;18.034;2023-09-30T14:15:15;3.42;;;1.45;;
18820;SDS011;9539;59.332;18.034;2023-09-30T14:17:36;5.28;;;1.55;;
18820;SDS011;9539;59.332;18.034;2023-09-30T14:19:58;7.10;;;1.98;;
18820;SDS011;9539;59.332;18.034;2023-09-30T14:22:20;8.25;;;1.92;;
18820;SDS011;9539;59.332;18.034;2023-09-30T14:24:43;4.65;;;1.60;;
18820;SDS011;9539;59.332;18.034;2023-09-30T14:27:05;5.38;;;1.60;;